sensor_id;sensor_type;location;lat;lon;timestamp;P1;durP1;ratioP1;P2;durP2;ratioP2
56269;SDS011;42176;43.240;27.880;2023-07-29T00:00:30;2.77;;;0.90;;
56269;SDS011;42176;43.240;27.880;2023-07-29T00:02:30;3.63;;;1.27;;
56269;SDS011;42176;43.240;27.880;2023-07-29T00:04:32;2.28;;;1.17;;
56269;SDS011;42176;43.240;27.880;2023-07-29T00:06:32;1.20;;;1.10;;
56269;SDS011;42176;43.240;27.880;2023-07-29T00:08:33;1.70;;;1.23;;
56269;SDS011;42176;43.240;27.880;2023-07-29T00:10:35;1.00;;;0.90;;
56269;SDS011;42176;43.240;27.880;2023-07-29T00:12:37;1.33;;;1.23;;
56269;SDS011;42176;43.240;27.880;2023-07-29T00:14:37;2.33;;;1.30;;
56269;SDS011;42176;43.240;27.880;2023-07-29T00:16:37;4.90;;;1.53;;
56269;SDS011;42176;43.240;27.880;2023-07-29T00:18:38;2.30;;;1.30;;
56269;SDS011;42176;43.240;27.880;2023-07-29T00:20:38;1.63;;;1.00;;
56269;SDS011;42176;43.240;27.880;2023-07-29T00:22:39;1.10;;;1.00;;
56269;SDS011;42176;43.240;27.880;2023-07-29T00:24:39;4.50;;;1.27;;
56269;SDS011;42176;43.240;27.880;2023-07-29T00:26:40;1.57;;;0.90;;
56269;SDS011;42176;43.240;27.880;2023-07-29T00:28:40;0.97;;;0.90;;
56269;SDS011;42176;43.240;27.880;2023-07-29T00:30:41;1.43;;;1.30;;
56269;SDS011;42176;43.240;27.880;2023-07-29T00:32:42;1.60;;;1.00;;
56269;SDS011;42176;43.240;27.880;2023-07-29T00:34:42;1.33;;;0.70;;
56269;SDS011;42176;43.240;27.880;2023-07-29T00:36:42;1.07;;;1.00;;
56269;SDS011;42176;43.240;27.880;2023-07-29T00:38:43;1.60;;;1.20;;
56269;SDS011;42176;43.240;27.880;2023-07-29T00:40:43;1.67;;;1.13;;
56269;SDS011;42176;43.240;27.880;2023-07-29T00:42:44;1.13;;;1.00;;
56269;SDS011;42176;43.240;27.880;2023-07-29T00:44:44;3.77;;;1.07;;
56269;SDS011;42176;43.240;27.880;2023-07-29T00:46:45;1.20;;;1.10;;
56269;SDS011;42176;43.240;27.880;2023-07-29T00:48:47;2.22;;;1.20;;
56269;SDS011;42176;43.240;27.880;2023-07-29T00:50:47;1.30;;;1.20;;
56269;SDS011;42176;43.240;27.880;2023-07-29T00:52:48;3.10;;;1.43;;
56269;SDS011;42176;43.240;27.880;2023-07-29T00:54:49;2.00;;;1.20;;
56269;SDS011;42176;43.240;27.880;2023-07-29T00:56:50;3.77;;;1.30;;
56269;SDS011;42176;43.240;27.880;2023-07-29T00:58:51;2.70;;;1.23;;
56269;SDS011;42176;43.240;27.880;2023-07-29T01:00:58;2.72;;;1.25;;
56269;SDS011;42176;43.240;27.880;2023-07-29T01:02:59;3.53;;;1.20;;
56269;SDS011;42176;43.240;27.880;2023-07-29T01:04:59;2.73;;;1.43;;
56269;SDS011;42176;43.240;27.880;2023-07-29T01:07:07;1.20;;;1.10;;
56269;SDS011;42176;43.240;27.880;2023-07-29T01:11:58;2.47;;;1.00;;
56269;SDS011;42176;43.240;27.880;2023-07-29T01:16:28;1.13;;;0.90;;
56269;SDS011;42176;43.240;27.880;2023-07-29T01:18:35;3.38;;;1.33;;
56269;SDS011;42176;43.240;27.880;2023-07-29T01:20:40;2.60;;;1.17;;
56269;SDS011;42176;43.240;27.880;2023-07-29T01:22:42;1.90;;;1.58;;
56269;SDS011;42176;43.240;27.880;2023-07-29T01:26:44;2.60;;;0.90;;
56269;SDS011;42176;43.240;27.880;2023-07-29T01:28:44;2.17;;;1.00;;
56269;SDS011;42176;43.240;27.880;2023-07-29T01:30:45;1.80;;;1.50;;
56269;SDS011;42176;43.240;27.880;2023-07-29T01:32:54;3.97;;;1.33;;
56269;SDS011;42176;43.240;27.880;2023-07-29T01:37:09;1.13;;;1.00;;
56269;SDS011;42176;43.240;27.880;2023-07-29T01:39:14;2.90;;;1.60;;
56269;SDS011;42176;43.240;27.880;2023-07-29T01:41:17;1.20;;;1.10;;
56269;SDS011;42176;43.240;27.880;2023-07-29T01:45:24;5.50;;;1.30;;
56269;SDS011;42176;43.240;27.880;2023-07-29T01:47:28;1.15;;;1.00;;
56269;SDS011;42176;43.240;27.880;2023-07-29T01:49:28;3.50;;;1.13;;
56269;SDS011;42176;43.240;27.880;2023-07-29T01:51:29;2.80;;;1.30;;
56269;SDS011;42176;43.240;27.880;2023-07-29T01:53:29;5.23;;;1.33;;
56269;SDS011;42176;43.240;27.880;2023-07-29T01:55:30;1.73;;;1.40;;
56269;SDS011;42176;43.240;27.880;2023-07-29T01:57:30;1.47;;;1.33;;
56269;SDS011;42176;43.240;27.880;2023-07-29T01:59:30;2.10;;;1.10;;
56269;SDS011;42176;43.240;27.880;2023-07-29T02:01:31;1.50;;;1.40;;
56269;SDS011;42176;43.240;27.880;2023-07-29T02:03:31;3.70;;;1.43;;
56269;SDS011;42176;43.240;27.880;2023-07-29T02:05:32;2.23;;;1.10;;
56269;SDS011;42176;43.240;27.880;2023-07-29T02:07:32;1.57;;;1.40;;
56269;SDS011;42176;43.240;27.880;2023-07-29T02:09:32;1.03;;;0.93;;
56269;SDS011;42176;43.240;27.880;2023-07-29T02:11:33;3.50;;;1.40;;
56269;SDS011;42176;43.240;27.880;2023-07-29T02:13:33;2.10;;;1.20;;
56269;SDS011;42176;43.240;27.880;2023-07-29T02:15:34;1.90;;;1.07;;
56269;SDS011;42176;43.240;27.880;2023-07-29T02:17:34;1.33;;;1.23;;
56269;SDS011;42176;43.240;27.880;2023-07-29T02:19:36;1.98;;;1.83;;
56269;SDS011;42176;43.240;27.880;2023-07-29T02:21:36;3.17;;;1.30;;
56269;SDS011;42176;43.240;27.880;2023-07-29T02:23:37;2.07;;;1.17;;
56269;SDS011;42176;43.240;27.880;2023-07-29T02:25:37;1.90;;;1.00;;
56269;SDS011;42176;43.240;27.880;2023-07-29T02:27:37;2.30;;;1.30;;
56269;SDS011;42176;43.240;27.880;2023-07-29T02:29:38;2.37;;;1.67;;
56269;SDS011;42176;43.240;27.880;2023-07-29T02:31:38;2.87;;;1.37;;
56269;SDS011;42176;43.240;27.880;2023-07-29T02:33:39;2.93;;;1.17;;
56269;SDS011;42176;43.240;27.880;2023-07-29T02:35:39;4.03;;;1.83;;
56269;SDS011;42176;43.240;27.880;2023-07-29T02:37:40;2.37;;;1.37;;
56269;SDS011;42176;43.240;27.880;2023-07-29T02:39:40;3.27;;;1.30;;
56269;SDS011;42176;43.240;27.880;2023-07-29T02:41:41;2.23;;;1.47;;
56269;SDS011;42176;43.240;27.880;2023-07-29T02:43:42;2.10;;;1.40;;
56269;SDS011;42176;43.240;27.880;2023-07-29T02:45:43;2.70;;;1.52;;
56269;SDS011;42176;43.240;27.880;2023-07-29T02:47:43;3.47;;;1.50;;
56269;SDS011;42176;43.240;27.880;2023-07-29T02:49:44;2.87;;;1.30;;
56269;SDS011;42176;43.240;27.880;2023-07-29T02:51:44;3.13;;;2.50;;
56269;SDS011;42176;43.240;27.880;2023-07-29T02:53:45;1.47;;;1.37;;
56269;SDS011;42176;43.240;27.880;2023-07-29T02:55:45;3.83;;;2.10;;
56269;SDS011;42176;43.240;27.880;2023-07-29T02:57:45;1.67;;;1.53;;
56269;SDS011;42176;43.240;27.880;2023-07-29T02:59:46;4.33;;;1.33;;
56269;SDS011;42176;43.240;27.880;2023-07-29T03:01:46;6.00;;;1.50;;
56269;SDS011;42176;43.240;27.880;2023-07-29T03:03:47;1.47;;;1.27;;
56269;SDS011;42176;43.240;27.880;2023-07-29T03:05:47;1.73;;;1.30;;
56269;SDS011;42176;43.240;27.880;2023-07-29T03:07:48;1.80;;;1.53;;
56269;SDS011;42176;43.240;27.880;2023-07-29T03:09:48;3.70;;;1.40;;
56269;SDS011;42176;43.240;27.880;2023-07-29T03:11:49;1.70;;;1.20;;
56269;SDS011;42176;43.240;27.880;2023-07-29T03:13:50;1.98;;;1.08;;
56269;SDS011;42176;43.240;27.880;2023-07-29T03:15:51;1.83;;;1.30;;
56269;SDS011;42176;43.240;27.880;2023-07-29T03:17:52;4.63;;;1.27;;
56269;SDS011;42176;43.240;27.880;2023-07-29T03:19:52;3.72;;;1.40;;
56269;SDS011;42176;43.240;27.880;2023-07-29T03:21:53;2.87;;;1.23;;
56269;SDS011;42176;43.240;27.880;2023-07-29T03:23:53;1.50;;;1.17;;
56269;SDS011;42176;43.240;27.880;2023-07-29T03:25:57;2.20;;;1.50;;
56269;SDS011;42176;43.240;27.880;2023-07-29T03:27:59;1.20;;;1.15;;
56269;SDS011;42176;43.240;27.880;2023-07-29T03:29:59;6.50;;;1.43;;
56269;SDS011;42176;43.240;27.880;2023-07-29T03:31:59;4.33;;;1.13;;
56269;SDS011;42176;43.240;27.880;2023-07-29T03:34:00;1.90;;;1.40;;
56269;SDS011;42176;43.240;27.880;2023-07-29T03:36:00;1.83;;;1.37;;
56269;SDS011;42176;43.240;27.880;2023-07-29T03:38:01;2.03;;;1.30;;
56269;SDS011;42176;43.240;27.880;2023-07-29T03:40:03;5.20;;;1.45;;
56269;SDS011;42176;43.240;27.880;2023-07-29T03:42:04;4.30;;;1.52;;
56269;SDS011;42176;43.240;27.880;2023-07-29T03:44:05;3.30;;;1.50;;
56269;SDS011;42176;43.240;27.880;2023-07-29T03:46:05;3.13;;;1.20;;
56269;SDS011;42176;43.240;27.880;2023-07-29T03:48:05;2.97;;;1.27;;
56269;SDS011;42176;43.240;27.880;2023-07-29T03:50:07;2.90;;;1.25;;
56269;SDS011;42176;43.240;27.880;2023-07-29T03:52:08;2.15;;;1.60;;
56269;SDS011;42176;43.240;27.880;2023-07-29T03:54:09;3.83;;;1.70;;
56269;SDS011;42176;43.240;27.880;2023-07-29T03:56:09;7.27;;;1.63;;
56269;SDS011;42176;43.240;27.880;2023-07-29T03:58:10;5.30;;;1.30;;
56269;SDS011;42176;43.240;27.880;2023-07-29T04:00:10;3.67;;;1.60;;
56269;SDS011;42176;43.240;27.880;2023-07-29T04:02:11;2.53;;;1.07;;
56269;SDS011;42176;43.240;27.880;2023-07-29T04:04:11;3.10;;;0.93;;
56269;SDS011;42176;43.240;27.880;2023-07-29T04:06:12;1.07;;;1.07;;
56269;SDS011;42176;43.240;27.880;2023-07-29T04:08:12;3.17;;;0.97;;
56269;SDS011;42176;43.240;27.880;2023-07-29T04:10:13;1.50;;;1.40;;
56269;SDS011;42176;43.240;27.880;2023-07-29T04:12:14;1.13;;;1.10;;
56269;SDS011;42176;43.240;27.880;2023-07-29T04:14:15;2.15;;;1.33;;
56269;SDS011;42176;43.240;27.880;2023-07-29T04:16:15;9.10;;;5.63;;
56269;SDS011;42176;43.240;27.880;2023-07-29T04:18:16;5.00;;;3.35;;
56269;SDS011;42176;43.240;27.880;2023-07-29T04:20:17;3.25;;;1.25;;
56269;SDS011;42176;43.240;27.880;2023-07-29T04:22:17;1.60;;;1.50;;
56269;SDS011;42176;43.240;27.880;2023-07-29T04:24:18;3.20;;;1.35;;
56269;SDS011;42176;43.240;27.880;2023-07-29T04:26:20;4.68;;;1.13;;
56269;SDS011;42176;43.240;27.880;2023-07-29T04:28:20;2.30;;;1.40;;
56269;SDS011;42176;43.240;27.880;2023-07-29T04:30:21;6.68;;;1.90;;
56269;SDS011;42176;43.240;27.880;2023-07-29T04:32:21;4.07;;;1.30;;
56269;SDS011;42176;43.240;27.880;2023-07-29T04:34:21;3.15;;;1.35;;
56269;SDS011;42176;43.240;27.880;2023-07-29T04:36:22;5.03;;;1.20;;
56269;SDS011;42176;43.240;27.880;2023-07-29T04:40:24;8.55;;;1.58;;
56269;SDS011;42176;43.240;27.880;2023-07-29T04:44:25;3.87;;;2.17;;
56269;SDS011;42176;43.240;27.880;2023-07-29T04:46:26;9.35;;;2.40;;
56269;SDS011;42176;43.240;27.880;2023-07-29T04:50:26;9.37;;;2.00;;
56269;SDS011;42176;43.240;27.880;2023-07-29T04:52:27;4.60;;;1.90;;
56269;SDS011;42176;43.240;27.880;2023-07-29T04:54:27;13.10;;;2.38;;
56269;SDS011;42176;43.240;27.880;2023-07-29T04:56:28;7.38;;;1.92;;
56269;SDS011;42176;43.240;27.880;2023-07-29T04:58:28;7.22;;;2.25;;
56269;SDS011;42176;43.240;27.880;2023-07-29T05:00:29;9.10;;;2.53;;
56269;SDS011;42176;43.240;27.880;2023-07-29T05:02:30;7.32;;;2.47;;
56269;SDS011;42176;43.240;27.880;2023-07-29T05:04:30;6.25;;;2.25;;
56269;SDS011;42176;43.240;27.880;2023-07-29T05:06:31;5.82;;;2.53;;
56269;SDS011;42176;43.240;27.880;2023-07-29T05:08:31;5.25;;;2.47;;
56269;SDS011;42176;43.240;27.880;2023-07-29T05:10:31;23.90;;;3.83;;
56269;SDS011;42176;43.240;27.880;2023-07-29T05:12:32;6.63;;;2.80;;
56269;SDS011;42176;43.240;27.880;2023-07-29T05:14:32;13.13;;;4.18;;
56269;SDS011;42176;43.240;27.880;2023-07-29T05:16:33;7.80;;;4.28;;
56269;SDS011;42176;43.240;27.880;2023-07-29T05:18:33;8.02;;;3.60;;
56269;SDS011;42176;43.240;27.880;2023-07-29T05:20:34;4.40;;;3.10;;
56269;SDS011;42176;43.240;27.880;2023-07-29T05:22:34;6.63;;;2.30;;
56269;SDS011;42176;43.240;27.880;2023-07-29T05:24:34;5.70;;;2.45;;
56269;SDS011;42176;43.240;27.880;2023-07-29T05:26:35;2.67;;;2.28;;
56269;SDS011;42176;43.240;27.880;2023-07-29T05:28:35;6.28;;;3.10;;
56269;SDS011;42176;43.240;27.880;2023-07-29T05:30:36;4.03;;;2.92;;
56269;SDS011;42176;43.240;27.880;2023-07-29T05:32:37;5.85;;;3.80;;
56269;SDS011;42176;43.240;27.880;2023-07-29T05:34:37;6.78;;;3.53;;
56269;SDS011;42176;43.240;27.880;2023-07-29T05:36:38;6.50;;;4.00;;
56269;SDS011;42176;43.240;27.880;2023-07-29T05:38:39;6.72;;;4.10;;
56269;SDS011;42176;43.240;27.880;2023-07-29T05:40:39;6.00;;;3.60;;
56269;SDS011;42176;43.240;27.880;2023-07-29T05:42:41;9.48;;;3.22;;
56269;SDS011;42176;43.240;27.880;2023-07-29T05:44:41;6.85;;;4.18;;
56269;SDS011;42176;43.240;27.880;2023-07-29T05:46:42;9.50;;;4.10;;
56269;SDS011;42176;43.240;27.880;2023-07-29T05:48:42;4.30;;;3.42;;
56269;SDS011;42176;43.240;27.880;2023-07-29T05:50:43;4.05;;;3.65;;
56269;SDS011;42176;43.240;27.880;2023-07-29T05:52:43;5.38;;;3.42;;
56269;SDS011;42176;43.240;27.880;2023-07-29T05:54:44;5.70;;;3.28;;
56269;SDS011;42176;43.240;27.880;2023-07-29T05:56:45;7.38;;;5.88;;
56269;SDS011;42176;43.240;27.880;2023-07-29T05:58:45;6.40;;;3.63;;
56269;SDS011;42176;43.240;27.880;2023-07-29T06:00:45;4.57;;;3.58;;
56269;SDS011;42176;43.240;27.880;2023-07-29T06:02:46;3.60;;;3.30;;
56269;SDS011;42176;43.240;27.880;2023-07-29T06:04:46;4.00;;;3.40;;
56269;SDS011;42176;43.240;27.880;2023-07-29T06:06:47;6.68;;;3.80;;
56269;SDS011;42176;43.240;27.880;2023-07-29T06:08:47;7.05;;;4.80;;
56269;SDS011;42176;43.240;27.880;2023-07-29T06:10:48;7.57;;;4.45;;
56269;SDS011;42176;43.240;27.880;2023-07-29T06:12:48;4.40;;;3.72;;
56269;SDS011;42176;43.240;27.880;2023-07-29T06:14:48;4.32;;;3.45;;
56269;SDS011;42176;43.240;27.880;2023-07-29T06:16:49;7.78;;;4.30;;
56269;SDS011;42176;43.240;27.880;2023-07-29T06:18:49;7.57;;;6.00;;
56269;SDS011;42176;43.240;27.880;2023-07-29T06:20:50;5.75;;;4.43;;
56269;SDS011;42176;43.240;27.880;2023-07-29T06:22:51;6.32;;;3.10;;
56269;SDS011;42176;43.240;27.880;2023-07-29T06:24:51;4.25;;;3.72;;
56269;SDS011;42176;43.240;27.880;2023-07-29T06:26:52;5.32;;;3.53;;
56269;SDS011;42176;43.240;27.880;2023-07-29T06:28:52;6.93;;;3.35;;
56269;SDS011;42176;43.240;27.880;2023-07-29T06:30:53;7.78;;;3.22;;
56269;SDS011;42176;43.240;27.880;2023-07-29T06:32:53;4.15;;;3.67;;
56269;SDS011;42176;43.240;27.880;2023-07-29T06:34:54;10.65;;;3.40;;
56269;SDS011;42176;43.240;27.880;2023-07-29T06:36:55;4.40;;;3.42;;
56269;SDS011;42176;43.240;27.880;2023-07-29T06:38:55;4.20;;;3.40;;
56269;SDS011;42176;43.240;27.880;2023-07-29T06:40:56;4.30;;;3.90;;
56269;SDS011;42176;43.240;27.880;2023-07-29T06:42:56;7.75;;;2.83;;
56269;SDS011;42176;43.240;27.880;2023-07-29T06:44:57;8.70;;;3.28;;
56269;SDS011;42176;43.240;27.880;2023-07-29T06:46:58;4.80;;;3.58;;
56269;SDS011;42176;43.240;27.880;2023-07-29T06:48:58;4.70;;;2.83;;
56269;SDS011;42176;43.240;27.880;2023-07-29T06:50:58;5.05;;;2.63;;
56269;SDS011;42176;43.240;27.880;2023-07-29T06:53:00;3.47;;;2.55;;
56269;SDS011;42176;43.240;27.880;2023-07-29T06:55:01;2.70;;;2.33;;
56269;SDS011;42176;43.240;27.880;2023-07-29T06:57:01;3.95;;;2.47;;
56269;SDS011;42176;43.240;27.880;2023-07-29T06:59:02;2.20;;;2.00;;
56269;SDS011;42176;43.240;27.880;2023-07-29T07:01:02;2.60;;;2.40;;
56269;SDS011;42176;43.240;27.880;2023-07-29T07:03:03;3.85;;;2.33;;
56269;SDS011;42176;43.240;27.880;2023-07-29T07:05:03;2.35;;;2.08;;
56269;SDS011;42176;43.240;27.880;2023-07-29T07:07:04;2.40;;;2.20;;
56269;SDS011;42176;43.240;27.880;2023-07-29T07:09:05;5.00;;;2.15;;
56269;SDS011;42176;43.240;27.880;2023-07-29T07:11:05;2.40;;;2.08;;
56269;SDS011;42176;43.240;27.880;2023-07-29T07:13:06;5.53;;;2.33;;
56269;SDS011;42176;43.240;27.880;2023-07-29T07:15:06;3.28;;;2.00;;
56269;SDS011;42176;43.240;27.880;2023-07-29T07:17:07;2.90;;;2.55;;
56269;SDS011;42176;43.240;27.880;2023-07-29T07:19:08;2.80;;;2.45;;
56269;SDS011;42176;43.240;27.880;2023-07-29T07:21:09;2.85;;;2.40;;
56269;SDS011;42176;43.240;27.880;2023-07-29T07:23:09;6.00;;;2.90;;
56269;SDS011;42176;43.240;27.880;2023-07-29T07:25:12;2.53;;;2.33;;
56269;SDS011;42176;43.240;27.880;2023-07-29T07:27:12;4.53;;;2.47;;
56269;SDS011;42176;43.240;27.880;2023-07-29T07:29:12;4.57;;;3.10;;
56269;SDS011;42176;43.240;27.880;2023-07-29T07:31:13;4.95;;;2.75;;
56269;SDS011;42176;43.240;27.880;2023-07-29T07:33:13;3.55;;;2.97;;
56269;SDS011;42176;43.240;27.880;2023-07-29T07:35:14;3.10;;;2.33;;
56269;SDS011;42176;43.240;27.880;2023-07-29T07:37:15;3.80;;;3.35;;
56269;SDS011;42176;43.240;27.880;2023-07-29T07:39:16;8.55;;;3.15;;
56269;SDS011;42176;43.240;27.880;2023-07-29T07:41:16;5.00;;;3.53;;
56269;SDS011;42176;43.240;27.880;2023-07-29T07:43:16;4.13;;;3.00;;
56269;SDS011;42176;43.240;27.880;2023-07-29T07:45:17;6.70;;;3.80;;
56269;SDS011;42176;43.240;27.880;2023-07-29T07:47:18;5.53;;;3.70;;
56269;SDS011;42176;43.240;27.880;2023-07-29T07:49:18;5.40;;;3.63;;
56269;SDS011;42176;43.240;27.880;2023-07-29T07:51:19;4.53;;;4.13;;
56269;SDS011;42176;43.240;27.880;2023-07-29T07:53:19;4.40;;;4.00;;
56269;SDS011;42176;43.240;27.880;2023-07-29T07:55:20;7.05;;;4.38;;
56269;SDS011;42176;43.240;27.880;2023-07-29T07:57:21;5.22;;;3.22;;
56269;SDS011;42176;43.240;27.880;2023-07-29T07:59:22;4.53;;;3.28;;
56269;SDS011;42176;43.240;27.880;2023-07-29T08:01:22;6.25;;;4.05;;
56269;SDS011;42176;43.240;27.880;2023-07-29T08:03:23;4.60;;;3.35;;
56269;SDS011;42176;43.240;27.880;2023-07-29T08:05:23;5.20;;;3.40;;
56269;SDS011;42176;43.240;27.880;2023-07-29T08:07:24;4.63;;;4.03;;
56269;SDS011;42176;43.240;27.880;2023-07-29T08:09:24;7.70;;;4.00;;
56269;SDS011;42176;43.240;27.880;2023-07-29T08:11:25;6.20;;;3.75;;
56269;SDS011;42176;43.240;27.880;2023-07-29T08:13:25;5.75;;;3.50;;
56269;SDS011;42176;43.240;27.880;2023-07-29T08:15:26;4.57;;;4.00;;
56269;SDS011;42176;43.240;27.880;2023-07-29T08:17:26;4.90;;;3.95;;
56269;SDS011;42176;43.240;27.880;2023-07-29T08:19:27;5.95;;;3.97;;
56269;SDS011;42176;43.240;27.880;2023-07-29T08:21:27;6.10;;;3.83;;
56269;SDS011;42176;43.240;27.880;2023-07-29T08:23:28;5.20;;;3.22;;
56269;SDS011;42176;43.240;27.880;2023-07-29T08:25:30;9.10;;;2.78;;
56269;SDS011;42176;43.240;27.880;2023-07-29T08:27:30;3.05;;;2.75;;
56269;SDS011;42176;43.240;27.880;2023-07-29T08:29:33;4.10;;;3.03;;
56269;SDS011;42176;43.240;27.880;2023-07-29T08:31:33;3.20;;;2.90;;
56269;SDS011;42176;43.240;27.880;2023-07-29T08:33:34;3.45;;;2.67;;
56269;SDS011;42176;43.240;27.880;2023-07-29T08:35:34;3.80;;;3.10;;
56269;SDS011;42176;43.240;27.880;2023-07-29T08:37:35;4.95;;;3.33;;
56269;SDS011;42176;43.240;27.880;2023-07-29T08:39:35;3.50;;;3.20;;
56269;SDS011;42176;43.240;27.880;2023-07-29T08:41:37;5.03;;;3.63;;
56269;SDS011;42176;43.240;27.880;2023-07-29T08:44:04;3.88;;;2.55;;
56269;SDS011;42176;43.240;27.880;2023-07-29T08:46:09;3.03;;;2.25;;
56269;SDS011;42176;43.240;27.880;2023-07-29T08:48:10;6.35;;;2.40;;
56269;SDS011;42176;43.240;27.880;2023-07-29T08:50:12;7.95;;;2.30;;
56269;SDS011;42176;43.240;27.880;2023-07-29T08:52:13;6.28;;;1.98;;
56269;SDS011;42176;43.240;27.880;2023-07-29T08:54:15;2.33;;;2.08;;
56269;SDS011;42176;43.240;27.880;2023-07-29T08:56:16;2.00;;;1.90;;
56269;SDS011;42176;43.240;27.880;2023-07-29T08:58:16;2.67;;;1.65;;
56269;SDS011;42176;43.240;27.880;2023-07-29T09:00:17;3.42;;;1.80;;
56269;SDS011;42176;43.240;27.880;2023-07-29T09:02:19;2.20;;;2.00;;
56269;SDS011;42176;43.240;27.880;2023-07-29T09:04:19;4.63;;;2.08;;
56269;SDS011;42176;43.240;27.880;2023-07-29T09:06:20;5.45;;;1.98;;
56269;SDS011;42176;43.240;27.880;2023-07-29T09:08:22;2.67;;;2.42;;
56269;SDS011;42176;43.240;27.880;2023-07-29T09:10:25;1.67;;;1.58;;
56269;SDS011;42176;43.240;27.880;2023-07-29T09:12:26;3.40;;;1.92;;
56269;SDS011;42176;43.240;27.880;2023-07-29T09:14:26;4.53;;;1.92;;
56269;SDS011;42176;43.240;27.880;2023-07-29T09:16:28;2.22;;;1.67;;
56269;SDS011;42176;43.240;27.880;2023-07-29T09:18:29;2.75;;;1.83;;
56269;SDS011;42176;43.240;27.880;2023-07-29T09:20:30;2.17;;;1.80;;
56269;SDS011;42176;43.240;27.880;2023-07-29T09:22:34;2.13;;;1.70;;
56269;SDS011;42176;43.240;27.880;2023-07-29T09:24:34;2.15;;;1.55;;
56269;SDS011;42176;43.240;27.880;2023-07-29T09:26:35;1.83;;;1.73;;
56269;SDS011;42176;43.240;27.880;2023-07-29T09:28:36;2.33;;;1.60;;
56269;SDS011;42176;43.240;27.880;2023-07-29T09:30:38;5.68;;;1.35;;
56269;SDS011;42176;43.240;27.880;2023-07-29T09:32:40;4.20;;;1.60;;
56269;SDS011;42176;43.240;27.880;2023-07-29T09:34:41;3.67;;;1.52;;
56269;SDS011;42176;43.240;27.880;2023-07-29T09:36:42;2.17;;;1.65;;
56269;SDS011;42176;43.240;27.880;2023-07-29T09:38:42;5.47;;;1.77;;
56269;SDS011;42176;43.240;27.880;2023-07-29T09:40:44;1.60;;;1.50;;
56269;SDS011;42176;43.240;27.880;2023-07-29T09:42:52;4.90;;;1.60;;
56269;SDS011;42176;43.240;27.880;2023-07-29T09:44:55;1.92;;;1.65;;
56269;SDS011;42176;43.240;27.880;2023-07-29T09:46:56;4.07;;;2.50;;
56269;SDS011;42176;43.240;27.880;2023-07-29T09:48:58;7.30;;;1.98;;
56269;SDS011;42176;43.240;27.880;2023-07-29T09:50:59;2.03;;;1.85;;
56269;SDS011;42176;43.240;27.880;2023-07-29T09:52:59;2.63;;;1.95;;
56269;SDS011;42176;43.240;27.880;2023-07-29T09:55:00;2.72;;;2.53;;
56269;SDS011;42176;43.240;27.880;2023-07-29T09:57:00;2.97;;;1.90;;
56269;SDS011;42176;43.240;27.880;2023-07-29T09:59:01;3.10;;;2.20;;
56269;SDS011;42176;43.240;27.880;2023-07-29T10:01:01;2.97;;;2.00;;
56269;SDS011;42176;43.240;27.880;2023-07-29T10:03:02;1.98;;;1.77;;
56269;SDS011;42176;43.240;27.880;2023-07-29T10:05:03;4.78;;;1.92;;
56269;SDS011;42176;43.240;27.880;2023-07-29T10:07:05;3.33;;;2.10;;
56269;SDS011;42176;43.240;27.880;2023-07-29T10:09:07;4.93;;;1.70;;
56269;SDS011;42176;43.240;27.880;2023-07-29T10:11:08;4.32;;;1.42;;
56269;SDS011;42176;43.240;27.880;2023-07-29T10:13:10;1.75;;;1.30;;
56269;SDS011;42176;43.240;27.880;2023-07-29T10:15:10;7.85;;;1.55;;
56269;SDS011;42176;43.240;27.880;2023-07-29T10:17:11;5.75;;;1.40;;
56269;SDS011;42176;43.240;27.880;2023-07-29T10:19:11;2.03;;;1.77;;
56269;SDS011;42176;43.240;27.880;2023-07-29T10:21:14;1.80;;;1.40;;
56269;SDS011;42176;43.240;27.880;2023-07-29T10:23:15;6.88;;;1.67;;
56269;SDS011;42176;43.240;27.880;2023-07-29T10:25:18;6.57;;;1.20;;
56269;SDS011;42176;43.240;27.880;2023-07-29T10:27:22;1.85;;;1.30;;
56269;SDS011;42176;43.240;27.880;2023-07-29T10:29:24;2.13;;;1.02;;
56269;SDS011;42176;43.240;27.880;2023-07-29T10:31:32;1.65;;;1.35;;
56269;SDS011;42176;43.240;27.880;2023-07-29T10:33:34;1.23;;;1.10;;
56269;SDS011;42176;43.240;27.880;2023-07-29T10:35:34;1.50;;;1.27;;
56269;SDS011;42176;43.240;27.880;2023-07-29T10:37:36;2.00;;;1.20;;
56269;SDS011;42176;43.240;27.880;2023-07-29T10:39:44;2.67;;;1.67;;
56269;SDS011;42176;43.240;27.880;2023-07-29T10:41:59;2.20;;;1.42;;
56269;SDS011;42176;43.240;27.880;2023-07-29T10:44:02;3.33;;;1.80;;
56269;SDS011;42176;43.240;27.880;2023-07-29T10:50:34;3.53;;;1.40;;
56269;SDS011;42176;43.240;27.880;2023-07-29T10:54:42;4.60;;;1.30;;
56269;SDS011;42176;43.240;27.880;2023-07-29T10:56:46;5.32;;;1.98;;
56269;SDS011;42176;43.240;27.880;2023-07-29T10:58:48;5.20;;;1.20;;
56269;SDS011;42176;43.240;27.880;2023-07-29T11:00:49;3.78;;;1.55;;
56269;SDS011;42176;43.240;27.880;2023-07-29T11:02:58;1.70;;;1.50;;
56269;SDS011;42176;43.240;27.880;2023-07-29T11:05:41;3.33;;;1.52;;
56269;SDS011;42176;43.240;27.880;2023-07-29T11:07:48;1.90;;;1.25;;
56269;SDS011;42176;43.240;27.880;2023-07-29T11:11:51;2.20;;;1.38;;
56269;SDS011;42176;43.240;27.880;2023-07-29T11:13:52;1.98;;;1.35;;
56269;SDS011;42176;43.240;27.880;2023-07-29T11:15:53;2.50;;;1.52;;
56269;SDS011;42176;43.240;27.880;2023-07-29T11:19:59;1.20;;;1.10;;
56269;SDS011;42176;43.240;27.880;2023-07-29T11:22:01;1.30;;;1.20;;
56269;SDS011;42176;43.240;27.880;2023-07-29T11:24:02;2.47;;;1.58;;
56269;SDS011;42176;43.240;27.880;2023-07-29T11:26:03;1.45;;;1.35;;
56269;SDS011;42176;43.240;27.880;2023-07-29T11:28:04;1.60;;;1.50;;
56269;SDS011;42176;43.240;27.880;2023-07-29T11:30:11;2.20;;;1.60;;
56269;SDS011;42176;43.240;27.880;2023-07-29T11:32:13;2.75;;;1.63;;
56269;SDS011;42176;43.240;27.880;2023-07-29T11:34:15;3.13;;;1.25;;
56269;SDS011;42176;43.240;27.880;2023-07-29T11:36:20;1.27;;;1.17;;
56269;SDS011;42176;43.240;27.880;2023-07-29T11:38:21;1.80;;;1.47;;
56269;SDS011;42176;43.240;27.880;2023-07-29T11:40:22;0.80;;;0.80;;
56269;SDS011;42176;43.240;27.880;2023-07-29T11:42:23;2.20;;;1.60;;
56269;SDS011;42176;43.240;27.880;2023-07-29T11:44:27;2.47;;;1.40;;
56269;SDS011;42176;43.240;27.880;2023-07-29T11:46:28;4.10;;;1.52;;
56269;SDS011;42176;43.240;27.880;2023-07-29T11:48:30;1.40;;;1.30;;
56269;SDS011;42176;43.240;27.880;2023-07-29T11:50:32;8.55;;;1.70;;
56269;SDS011;42176;43.240;27.880;2023-07-29T11:52:33;2.10;;;1.73;;
56269;SDS011;42176;43.240;27.880;2023-07-29T11:54:37;4.63;;;1.58;;
56269;SDS011;42176;43.240;27.880;2023-07-29T11:56:38;4.68;;;1.90;;
56269;SDS011;42176;43.240;27.880;2023-07-29T11:58:38;5.05;;;1.65;;
56269;SDS011;42176;43.240;27.880;2023-07-29T12:00:39;1.92;;;1.60;;
56269;SDS011;42176;43.240;27.880;2023-07-29T12:02:40;2.40;;;1.90;;
56269;SDS011;42176;43.240;27.880;2023-07-29T12:04:44;4.18;;;1.98;;
56269;SDS011;42176;43.240;27.880;2023-07-29T12:06:47;1.65;;;1.20;;
56269;SDS011;42176;43.240;27.880;2023-07-29T12:08:47;5.63;;;1.52;;
56269;SDS011;42176;43.240;27.880;2023-07-29T12:10:48;2.15;;;1.10;;
56269;SDS011;42176;43.240;27.880;2023-07-29T12:12:49;2.72;;;1.38;;
56269;SDS011;42176;43.240;27.880;2023-07-29T12:14:50;2.45;;;1.15;;
56269;SDS011;42176;43.240;27.880;2023-07-29T12:16:51;2.83;;;1.63;;
56269;SDS011;42176;43.240;27.880;2023-07-29T12:18:52;4.38;;;1.92;;
56269;SDS011;42176;43.240;27.880;2023-07-29T12:20:52;1.45;;;1.35;;
56269;SDS011;42176;43.240;27.880;2023-07-29T12:22:53;15.73;;;2.22;;
56269;SDS011;42176;43.240;27.880;2023-07-29T12:24:55;1.70;;;1.33;;
56269;SDS011;42176;43.240;27.880;2023-07-29T12:26:56;5.27;;;1.53;;